sensor_id;sensor_type;location;lat;lon;timestamp;temperature;humidity
14192;DHT22;7177;48.572;7.838;2022-11-20T00:00:57;7.60;99.90
14192;DHT22;7177;48.572;7.838;2022-11-20T00:03:29;7.60;99.90
14192;DHT22;7177;48.572;7.838;2022-11-20T00:06:00;7.60;99.90
14192;DHT22;7177;48.572;7.838;2022-11-20T00:08:25;7.50;99.90
14192;DHT22;7177;48.572;7.838;2022-11-20T00:10:51;7.50;99.90
14192;DHT22;7177;48.572;7.838;2022-11-20T00:13:16;7.50;99.90
14192;DHT22;7177;48.572;7.838;2022-11-20T00:15:41;7.40;99.90
14192;DHT22;7177;48.572;7.838;2022-11-20T00:18:07;7.40;99.90
14192;DHT22;7177;48.572;7.838;2022-11-20T00:20:32;7.40;99.90
14192;DHT22;7177;48.572;7.838;2022-11-20T00:22:58;7.50;99.90
14192;DHT22;7177;48.572;7.838;2022-11-20T00:25:24;7.50;99.90
14192;DHT22;7177;48.572;7.838;2022-11-20T00:27:50;7.50;99.90
14192;DHT22;7177;48.572;7.838;2022-11-20T00:30:15;7.50;99.90
14192;DHT22;7177;48.572;7.838;2022-11-20T00:32:41;7.50;99.90
14192;DHT22;7177;48.572;7.838;2022-11-20T00:35:07;7.50;99.90
14192;DHT22;7177;48.572;7.838;2022-11-20T00:37:32;7.40;99.90
14192;DHT22;7177;48.572;7.838;2022-11-20T00:39:58;7.50;99.90
14192;DHT22;7177;48.572;7.838;2022-11-20T00:42:23;7.50;99.90
14192;DHT22;7177;48.572;7.838;2022-11-20T00:44:49;7.50;99.90
14192;DHT22;7177;48.572;7.838;2022-11-20T00:47:14;7.50;99.90
14192;DHT22;7177;48.572;7.838;2022-11-20T00:49:40;7.40;99.90
14192;DHT22;7177;48.572;7.838;2022-11-20T00:52:05;7.40;99.90
14192;DHT22;7177;48.572;7.838;2022-11-20T00:54:31;7.30;99.90
14192;DHT22;7177;48.572;7.838;2022-11-20T00:56:56;7.30;99.90
14192;DHT22;7177;48.572;7.838;2022-11-20T00:59:22;7.30;99.90
14192;DHT22;7177;48.572;7.838;2022-11-20T01:01:48;7.30;99.90
14192;DHT22;7177;48.572;7.838;2022-11-20T01:04:13;7.30;99.90
14192;DHT22;7177;48.572;7.838;2022-11-20T01:06:39;7.30;99.90
14192;DHT22;7177;48.572;7.838;2022-11-20T01:09:07;7.20;99.90
14192;DHT22;7177;48.572;7.838;2022-11-20T01:11:37;7.20;99.90
14192;DHT22;7177;48.572;7.838;2022-11-20T01:14:06;7.10;99.90
14192;DHT22;7177;48.572;7.838;2022-11-20T01:16:37;7.20;99.90
14192;DHT22;7177;48.572;7.838;2022-11-20T01:19:06;7.20;99.90
14192;DHT22;7177;48.572;7.838;2022-11-20T01:21:34;7.20;99.90
14192;DHT22;7177;48.572;7.838;2022-11-20T01:24:01;7.10;99.90
14192;DHT22;7177;48.572;7.838;2022-11-20T01:26:32;7.10;99.90
14192;DHT22;7177;48.572;7.838;2022-11-20T01:28:59;7.00;99.90
14192;DHT22;7177;48.572;7.838;2022-11-20T01:33:54;7.00;99.90
14192;DHT22;7177;48.572;7.838;2022-11-20T01:36:22;7.00;99.90
14192;DHT22;7177;48.572;7.838;2022-11-20T01:38:51;7.00;99.90
14192;DHT22;7177;48.572;7.838;2022-11-20T01:41:17;7.00;99.90
14192;DHT22;7177;48.572;7.838;2022-11-20T01:44:03;6.90;99.90
14192;DHT22;7177;48.572;7.838;2022-11-20T01:46:36;7.00;99.90
14192;DHT22;7177;48.572;7.838;2022-11-20T01:49:42;7.00;99.90
14192;DHT22;7177;48.572;7.838;2022-11-20T01:52:13;7.00;99.90
14192;DHT22;7177;48.572;7.838;2022-11-20T01:54:45;6.90;99.90
14192;DHT22;7177;48.572;7.838;2022-11-20T01:57:13;6.90;99.90
14192;DHT22;7177;48.572;7.838;2022-11-20T01:59:43;6.90;99.90
14192;DHT22;7177;48.572;7.838;2022-11-20T02:02:10;6.90;99.90
14192;DHT22;7177;48.572;7.838;2022-11-20T02:04:36;6.90;99.90
14192;DHT22;7177;48.572;7.838;2022-11-20T02:07:04;6.90;99.90
14192;DHT22;7177;48.572;7.838;2022-11-20T02:09:30;6.90;99.90
14192;DHT22;7177;48.572;7.838;2022-11-20T02:11:56;6.90;99.90
14192;DHT22;7177;48.572;7.838;2022-11-20T02:14:22;6.90;99.90
14192;DHT22;7177;48.572;7.838;2022-11-20T02:16:49;6.90;99.90
14192;DHT22;7177;48.572;7.838;2022-11-20T02:19:35;6.90;99.90
14192;DHT22;7177;48.572;7.838;2022-11-20T02:24:26;6.90;99.90
14192;DHT22;7177;48.572;7.838;2022-11-20T02:27:03;6.80;99.90
14192;DHT22;7177;48.572;7.838;2022-11-20T02:32:00;6.80;99.90
14192;DHT22;7177;48.572;7.838;2022-11-20T02:34:27;6.80;99.90
14192;DHT22;7177;48.572;7.838;2022-11-20T02:36:53;6.90;99.90
14192;DHT22;7177;48.572;7.838;2022-11-20T02:39:19;6.90;99.90
14192;DHT22;7177;48.572;7.838;2022-11-20T02:41:46;6.90;99.90
14192;DHT22;7177;48.572;7.838;2022-11-20T02:44:11;6.90;99.90
14192;DHT22;7177;48.572;7.838;2022-11-20T02:46:37;7.00;99.90
14192;DHT22;7177;48.572;7.838;2022-11-20T02:49:04;7.00;99.90
14192;DHT22;7177;48.572;7.838;2022-11-20T02:51:30;7.00;99.90
14192;DHT22;7177;48.572;7.838;2022-11-20T02:53:55;7.00;99.90
14192;DHT22;7177;48.572;7.838;2022-11-20T02:56:21;7.00;99.90
14192;DHT22;7177;48.572;7.838;2022-11-20T02:58:47;7.00;99.90
14192;DHT22;7177;48.572;7.838;2022-11-20T03:01:12;7.00;99.90
14192;DHT22;7177;48.572;7.838;2022-11-20T03:03:38;7.00;99.90
14192;DHT22;7177;48.572;7.838;2022-11-20T03:06:04;7.00;99.90
14192;DHT22;7177;48.572;7.838;2022-11-20T03:08:29;7.00;99.90
14192;DHT22;7177;48.572;7.838;2022-11-20T03:10:55;7.00;99.90
14192;DHT22;7177;48.572;7.838;2022-11-20T03:13:21;7.00;99.90
14192;DHT22;7177;48.572;7.838;2022-11-20T03:15:46;7.00;99.90
14192;DHT22;7177;48.572;7.838;2022-11-20T03:18:12;7.00;99.90
14192;DHT22;7177;48.572;7.838;2022-11-20T03:20:39;7.00;99.90
14192;DHT22;7177;48.572;7.838;2022-11-20T03:23:04;7.00;99.90
14192;DHT22;7177;48.572;7.838;2022-11-20T03:25:30;7.00;99.90
14192;DHT22;7177;48.572;7.838;2022-11-20T03:27:56;7.00;99.90
14192;DHT22;7177;48.572;7.838;2022-11-20T03:30:21;7.00;99.90
14192;DHT22;7177;48.572;7.838;2022-11-20T03:32:47;7.00;99.90
14192;DHT22;7177;48.572;7.838;2022-11-20T03:35:13;7.00;99.90
14192;DHT22;7177;48.572;7.838;2022-11-20T03:37:38;7.00;99.90
14192;DHT22;7177;48.572;7.838;2022-11-20T03:40:04;7.00;99.90
14192;DHT22;7177;48.572;7.838;2022-11-20T03:42:30;7.00;99.90
14192;DHT22;7177;48.572;7.838;2022-11-20T03:45:12;7.00;99.90
14192;DHT22;7177;48.572;7.838;2022-11-20T03:47:38;7.00;99.90
14192;DHT22;7177;48.572;7.838;2022-11-20T03:50:04;6.90;99.90
14192;DHT22;7177;48.572;7.838;2022-11-20T03:52:29;6.90;99.90
14192;DHT22;7177;48.572;7.838;2022-11-20T03:54:55;6.90;99.90
14192;DHT22;7177;48.572;7.838;2022-11-20T03:57:20;6.90;99.90
14192;DHT22;7177;48.572;7.838;2022-11-20T03:59:46;6.90;99.90
14192;DHT22;7177;48.572;7.838;2022-11-20T04:02:11;6.90;99.90
14192;DHT22;7177;48.572;7.838;2022-11-20T04:04:37;6.90;99.90
14192;DHT22;7177;48.572;7.838;2022-11-20T04:07:03;6.90;99.90
14192;DHT22;7177;48.572;7.838;2022-11-20T04:09:28;6.80;99.90
14192;DHT22;7177;48.572;7.838;2022-11-20T04:11:54;6.90;99.90
14192;DHT22;7177;48.572;7.838;2022-11-20T04:14:19;6.90;99.90
14192;DHT22;7177;48.572;7.838;2022-11-20T04:16:45;6.80;99.90
14192;DHT22;7177;48.572;7.838;2022-11-20T04:19:13;6.90;99.90
14192;DHT22;7177;48.572;7.838;2022-11-20T04:21:38;6.80;99.90
14192;DHT22;7177;48.572;7.838;2022-11-20T04:24:04;6.80;99.90
14192;DHT22;7177;48.572;7.838;2022-11-20T04:26:30;6.80;99.90
14192;DHT22;7177;48.572;7.838;2022-11-20T04:28:56;6.80;99.90
14192;DHT22;7177;48.572;7.838;2022-11-20T04:31:27;6.80;99.90
14192;DHT22;7177;48.572;7.838;2022-11-20T04:33:53;6.80;99.90
14192;DHT22;7177;48.572;7.838;2022-11-20T04:36:24;6.80;99.90
14192;DHT22;7177;48.572;7.838;2022-11-20T04:38:55;6.80;99.90
14192;DHT22;7177;48.572;7.838;2022-11-20T04:41:22;6.80;99.90
14192;DHT22;7177;48.572;7.838;2022-11-20T04:43:49;6.80;99.90
14192;DHT22;7177;48.572;7.838;2022-11-20T04:46:17;6.80;99.90
14192;DHT22;7177;48.572;7.838;2022-11-20T04:48:43;6.80;99.90
14192;DHT22;7177;48.572;7.838;2022-11-20T04:51:08;6.80;99.90
14192;DHT22;7177;48.572;7.838;2022-11-20T04:53:34;6.80;99.90
14192;DHT22;7177;48.572;7.838;2022-11-20T04:56:01;6.90;99.90
14192;DHT22;7177;48.572;7.838;2022-11-20T04:58:26;6.90;99.90
14192;DHT22;7177;48.572;7.838;2022-11-20T05:00:52;6.90;99.90
14192;DHT22;7177;48.572;7.838;2022-11-20T05:03:17;6.90;99.90
14192;DHT22;7177;48.572;7.838;2022-11-20T05:05:43;6.90;99.90
14192;DHT22;7177;48.572;7.838;2022-11-20T05:08:08;6.90;99.90
14192;DHT22;7177;48.572;7.838;2022-11-20T05:10:34;6.90;99.90
14192;DHT22;7177;48.572;7.838;2022-11-20T05:12:59;6.80;99.90
14192;DHT22;7177;48.572;7.838;2022-11-20T05:15:25;6.80;99.90
14192;DHT22;7177;48.572;7.838;2022-11-20T05:17:51;6.90;99.90
14192;DHT22;7177;48.572;7.838;2022-11-20T05:20:18;6.90;99.90
14192;DHT22;7177;48.572;7.838;2022-11-20T05:22:44;6.80;99.90
14192;DHT22;7177;48.572;7.838;2022-11-20T05:25:10;6.80;99.90
14192;DHT22;7177;48.572;7.838;2022-11-20T05:27:36;6.80;99.90
14192;DHT22;7177;48.572;7.838;2022-11-20T05:30:03;6.80;99.90
14192;DHT22;7177;48.572;7.838;2022-11-20T05:32:29;6.90;99.90
14192;DHT22;7177;48.572;7.838;2022-11-20T05:34:54;6.90;99.90
14192;DHT22;7177;48.572;7.838;2022-11-20T05:37:20;6.80;99.90
14192;DHT22;7177;48.572;7.838;2022-11-20T05:39:45;6.90;99.90
14192;DHT22;7177;48.572;7.838;2022-11-20T05:42:11;6.80;99.90
14192;DHT22;7177;48.572;7.838;2022-11-20T05:44:55;6.80;99.90
14192;DHT22;7177;48.572;7.838;2022-11-20T05:47:20;6.80;99.90
14192;DHT22;7177;48.572;7.838;2022-11-20T05:49:46;6.80;99.90
14192;DHT22;7177;48.572;7.838;2022-11-20T05:52:11;6.80;99.90
14192;DHT22;7177;48.572;7.838;2022-11-20T05:54:37;6.90;99.90
14192;DHT22;7177;48.572;7.838;2022-11-20T05:57:02;6.90;99.90
14192;DHT22;7177;48.572;7.838;2022-11-20T05:59:28;6.90;99.90
14192;DHT22;7177;48.572;7.838;2022-11-20T06:01:53;6.90;99.90
14192;DHT22;7177;48.572;7.838;2022-11-20T06:04:19;6.90;99.90
14192;DHT22;7177;48.572;7.838;2022-11-20T06:06:44;7.00;99.90
14192;DHT22;7177;48.572;7.838;2022-11-20T06:09:10;7.00;99.90
14192;DHT22;7177;48.572;7.838;2022-11-20T06:11:35;7.00;99.90
14192;DHT22;7177;48.572;7.838;2022-11-20T06:14:01;7.00;99.90
14192;DHT22;7177;48.572;7.838;2022-11-20T06:16:26;7.00;99.90
14192;DHT22;7177;48.572;7.838;2022-11-20T06:18:52;7.20;99.90
14192;DHT22;7177;48.572;7.838;2022-11-20T06:21:20;7.30;99.90
14192;DHT22;7177;48.572;7.838;2022-11-20T06:23:46;7.40;99.90
14192;DHT22;7177;48.572;7.838;2022-11-20T06:26:17;7.40;99.90
14192;DHT22;7177;48.572;7.838;2022-11-20T06:28:43;7.50;99.90
14192;DHT22;7177;48.572;7.838;2022-11-20T06:31:11;7.40;99.90
14192;DHT22;7177;48.572;7.838;2022-11-20T06:33:36;7.30;99.90
14192;DHT22;7177;48.572;7.838;2022-11-20T06:36:02;7.20;99.90
14192;DHT22;7177;48.572;7.838;2022-11-20T06:38:28;7.10;99.90
14192;DHT22;7177;48.572;7.838;2022-11-20T06:40:54;7.10;99.90
14192;DHT22;7177;48.572;7.838;2022-11-20T06:43:20;7.00;99.90
14192;DHT22;7177;48.572;7.838;2022-11-20T06:45:46;7.00;99.90
14192;DHT22;7177;48.572;7.838;2022-11-20T06:48:11;7.00;99.90
14192;DHT22;7177;48.572;7.838;2022-11-20T06:50:37;6.90;99.90
14192;DHT22;7177;48.572;7.838;2022-11-20T06:53:04;6.90;99.90
14192;DHT22;7177;48.572;7.838;2022-11-20T06:55:30;6.90;99.90
14192;DHT22;7177;48.572;7.838;2022-11-20T06:57:56;6.90;99.90
14192;DHT22;7177;48.572;7.838;2022-11-20T07:00:22;6.90;99.90
14192;DHT22;7177;48.572;7.838;2022-11-20T07:02:48;6.90;99.90
14192;DHT22;7177;48.572;7.838;2022-11-20T07:05:13;6.80;99.90
14192;DHT22;7177;48.572;7.838;2022-11-20T07:07:39;6.80;99.90
14192;DHT22;7177;48.572;7.838;2022-11-20T07:10:05;6.80;99.90
14192;DHT22;7177;48.572;7.838;2022-11-20T07:12:30;6.80;99.90
14192;DHT22;7177;48.572;7.838;2022-11-20T07:14:56;6.80;99.90
14192;DHT22;7177;48.572;7.838;2022-11-20T07:17:22;6.80;99.90
14192;DHT22;7177;48.572;7.838;2022-11-20T07:19:47;6.80;99.90
14192;DHT22;7177;48.572;7.838;2022-11-20T07:22:13;6.80;99.90
14192;DHT22;7177;48.572;7.838;2022-11-20T07:24:38;6.80;99.90
14192;DHT22;7177;48.572;7.838;2022-11-20T07:27:04;6.80;99.90
14192;DHT22;7177;48.572;7.838;2022-11-20T07:29:30;6.80;99.90
14192;DHT22;7177;48.572;7.838;2022-11-20T07:31:55;6.80;99.90
14192;DHT22;7177;48.572;7.838;2022-11-20T07:34:22;6.80;99.90
14192;DHT22;7177;48.572;7.838;2022-11-20T07:36:47;6.80;99.90
14192;DHT22;7177;48.572;7.838;2022-11-20T07:39:13;6.80;99.90
14192;DHT22;7177;48.572;7.838;2022-11-20T07:41:38;6.80;99.90
14192;DHT22;7177;48.572;7.838;2022-11-20T07:44:04;6.80;99.90
14192;DHT22;7177;48.572;7.838;2022-11-20T07:46:30;6.80;99.90
14192;DHT22;7177;48.572;7.838;2022-11-20T07:48:56;6.80;99.90
14192;DHT22;7177;48.572;7.838;2022-11-20T07:51:21;6.80;99.90
14192;DHT22;7177;48.572;7.838;2022-11-20T07:53:47;6.90;99.90
14192;DHT22;7177;48.572;7.838;2022-11-20T07:56:12;6.90;99.90
14192;DHT22;7177;48.572;7.838;2022-11-20T07:58:39;6.90;99.90
14192;DHT22;7177;48.572;7.838;2022-11-20T08:01:06;7.00;99.90
14192;DHT22;7177;48.572;7.838;2022-11-20T08:03:32;7.00;99.90
14192;DHT22;7177;48.572;7.838;2022-11-20T08:06:01;7.10;99.90
14192;DHT22;7177;48.572;7.838;2022-11-20T08:08:27;7.10;99.90
14192;DHT22;7177;48.572;7.838;2022-11-20T08:10:54;7.10;99.90
14192;DHT22;7177;48.572;7.838;2022-11-20T08:13:39;7.10;99.90
14192;DHT22;7177;48.572;7.838;2022-11-20T08:16:23;7.20;99.90
14192;DHT22;7177;48.572;7.838;2022-11-20T08:18:49;7.20;99.90
14192;DHT22;7177;48.572;7.838;2022-11-20T08:21:15;7.20;99.90
14192;DHT22;7177;48.572;7.838;2022-11-20T08:23:40;7.20;99.90
14192;DHT22;7177;48.572;7.838;2022-11-20T08:26:06;7.30;99.90
14192;DHT22;7177;48.572;7.838;2022-11-20T08:28:31;7.30;99.90
14192;DHT22;7177;48.572;7.838;2022-11-20T08:31:00;7.30;99.90
14192;DHT22;7177;48.572;7.838;2022-11-20T08:33:26;7.40;99.90
14192;DHT22;7177;48.572;7.838;2022-11-20T08:35:51;7.40;99.90
14192;DHT22;7177;48.572;7.838;2022-11-20T08:38:17;7.40;99.90
14192;DHT22;7177;48.572;7.838;2022-11-20T08:40:42;7.40;99.90
14192;DHT22;7177;48.572;7.838;2022-11-20T08:43:28;7.50;99.90
14192;DHT22;7177;48.572;7.838;2022-11-20T08:45:55;7.50;99.90
14192;DHT22;7177;48.572;7.838;2022-11-20T08:48:21;7.50;99.90
14192;DHT22;7177;48.572;7.838;2022-11-20T08:50:46;7.50;99.90
14192;DHT22;7177;48.572;7.838;2022-11-20T08:53:12;7.50;99.90
14192;DHT22;7177;48.572;7.838;2022-11-20T08:55:37;7.70;99.90
14192;DHT22;7177;48.572;7.838;2022-11-20T08:58:05;7.70;99.90
14192;DHT22;7177;48.572;7.838;2022-11-20T09:00:32;7.70;99.90
14192;DHT22;7177;48.572;7.838;2022-11-20T09:02:57;7.70;99.90
14192;DHT22;7177;48.572;7.838;2022-11-20T09:05:24;7.60;99.90
14192;DHT22;7177;48.572;7.838;2022-11-20T09:07:49;7.60;99.90
14192;DHT22;7177;48.572;7.838;2022-11-20T09:10:15;7.60;99.90
14192;DHT22;7177;48.572;7.838;2022-11-20T09:12:41;7.60;99.90
14192;DHT22;7177;48.572;7.838;2022-11-20T09:15:07;7.60;99.90
14192;DHT22;7177;48.572;7.838;2022-11-20T09:17:32;7.60;99.90
14192;DHT22;7177;48.572;7.838;2022-11-20T09:19:58;7.60;99.90
14192;DHT22;7177;48.572;7.838;2022-11-20T09:22:24;7.60;99.90
14192;DHT22;7177;48.572;7.838;2022-11-20T09:24:49;7.60;99.90
14192;DHT22;7177;48.572;7.838;2022-11-20T09:27:15;7.70;99.90
14192;DHT22;7177;48.572;7.838;2022-11-20T09:29:44;7.70;99.90
14192;DHT22;7177;48.572;7.838;2022-11-20T09:32:10;7.70;99.90
14192;DHT22;7177;48.572;7.838;2022-11-20T09:34:35;7.80;99.90
14192;DHT22;7177;48.572;7.838;2022-11-20T09:37:01;7.90;99.90
14192;DHT22;7177;48.572;7.838;2022-11-20T09:39:26;8.00;99.90
14192;DHT22;7177;48.572;7.838;2022-11-20T09:42:08;8.10;99.90
14192;DHT22;7177;48.572;7.838;2022-11-20T09:49:52;8.40;99.90
14192;DHT22;7177;48.572;7.838;2022-11-20T09:55:01;8.50;99.90
14192;DHT22;7177;48.572;7.838;2022-11-20T09:57:34;8.70;99.90
14192;DHT22;7177;48.572;7.838;2022-11-20T10:00:04;8.80;99.90
14192;DHT22;7177;48.572;7.838;2022-11-20T10:05:29;9.30;99.90
14192;DHT22;7177;48.572;7.838;2022-11-20T10:08:16;9.70;99.90
14192;DHT22;7177;48.572;7.838;2022-11-20T10:16:46;11.00;99.90
14192;DHT22;7177;48.572;7.838;2022-11-20T10:22:00;10.40;99.90
14192;DHT22;7177;48.572;7.838;2022-11-20T10:24:50;10.10;99.90
14192;DHT22;7177;48.572;7.838;2022-11-20T10:27:50;9.90;99.90
14192;DHT22;7177;48.572;7.838;2022-11-20T10:30:19;9.70;99.90
14192;DHT22;7177;48.572;7.838;2022-11-20T10:32:50;9.60;99.90
14192;DHT22;7177;48.572;7.838;2022-11-20T10:35:33;9.50;99.90
14192;DHT22;7177;48.572;7.838;2022-11-20T10:38:02;9.50;99.90
14192;DHT22;7177;48.572;7.838;2022-11-20T10:40:51;9.50;99.90
14192;DHT22;7177;48.572;7.838;2022-11-20T10:43:21;9.70;99.90
14192;DHT22;7177;48.572;7.838;2022-11-20T10:46:03;9.80;99.90
14192;DHT22;7177;48.572;7.838;2022-11-20T10:48:31;10.00;99.90
14192;DHT22;7177;48.572;7.838;2022-11-20T10:54:17;10.90;99.90
14192;DHT22;7177;48.572;7.838;2022-11-20T10:56:51;11.10;99.90
14192;DHT22;7177;48.572;7.838;2022-11-20T11:01:59;11.20;99.90
14192;DHT22;7177;48.572;7.838;2022-11-20T11:04:37;12.10;99.90
14192;DHT22;7177;48.572;7.838;2022-11-20T11:07:36;13.20;99.90
14192;DHT22;7177;48.572;7.838;2022-11-20T11:12:58;14.00;99.90
14192;DHT22;7177;48.572;7.838;2022-11-20T11:15:29;14.10;99.90
14192;DHT22;7177;48.572;7.838;2022-11-20T11:17:55;14.40;99.90
14192;DHT22;7177;48.572;7.838;2022-11-20T11:20:25;14.90;99.90
14192;DHT22;7177;48.572;7.838;2022-11-20T11:22:55;14.90;99.90
14192;DHT22;7177;48.572;7.838;2022-11-20T11:25:29;15.00;99.90
14192;DHT22;7177;48.572;7.838;2022-11-20T11:27:59;14.70;99.90
14192;DHT22;7177;48.572;7.838;2022-11-20T11:30:26;13.90;99.90
14192;DHT22;7177;48.572;7.838;2022-11-20T11:33:03;13.30;99.90
14192;DHT22;7177;48.572;7.838;2022-11-20T11:35:31;12.50;99.90
14192;DHT22;7177;48.572;7.838;2022-11-20T11:38:35;12.10;99.90
14192;DHT22;7177;48.572;7.838;2022-11-20T11:41:03;11.90;99.90
14192;DHT22;7177;48.572;7.838;2022-11-20T11:43:32;12.00;99.90
14192;DHT22;7177;48.572;7.838;2022-11-20T11:46:23;11.90;99.90
14192;DHT22;7177;48.572;7.838;2022-11-20T11:51:33;14.00;99.90
14192;DHT22;7177;48.572;7.838;2022-11-20T11:54:01;12.30;99.90
14192;DHT22;7177;48.572;7.838;2022-11-20T11:56:28;12.60;99.90
14192;DHT22;7177;48.572;7.838;2022-11-20T11:58:54;12.50;99.90
14192;DHT22;7177;48.572;7.838;2022-11-20T12:06:53;14.10;99.90
14192;DHT22;7177;48.572;7.838;2022-11-20T12:09:34;14.70;99.90
14192;DHT22;7177;48.572;7.838;2022-11-20T12:12:20;14.20;99.90
14192;DHT22;7177;48.572;7.838;2022-11-20T12:14:48;14.60;99.90
14192;DHT22;7177;48.572;7.838;2022-11-20T12:17:16;14.80;99.90
14192;DHT22;7177;48.572;7.838;2022-11-20T12:19:43;15.00;99.90
14192;DHT22;7177;48.572;7.838;2022-11-20T12:22:46;15.50;99.90
14192;DHT22;7177;48.572;7.838;2022-11-20T12:25:25;15.80;99.90
14192;DHT22;7177;48.572;7.838;2022-11-20T12:30:25;15.30;99.90
14192;DHT22;7177;48.572;7.838;2022-11-20T12:39:02;14.70;99.90
14192;DHT22;7177;48.572;7.838;2022-11-20T12:42:00;13.70;99.90
14192;DHT22;7177;48.572;7.838;2022-11-20T12:53:22;14.10;99.90
14192;DHT22;7177;48.572;7.838;2022-11-20T12:56:00;14.50;99.90
14192;DHT22;7177;48.572;7.838;2022-11-20T13:01:12;15.00;99.90
14192;DHT22;7177;48.572;7.838;2022-11-20T13:04:10;15.20;99.90
14192;DHT22;7177;48.572;7.838;2022-11-20T13:06:39;14.30;99.90
14192;DHT22;7177;48.572;7.838;2022-11-20T13:09:11;14.20;99.90
14192;DHT22;7177;48.572;7.838;2022-11-20T13:11:42;14.60;99.90
14192;DHT22;7177;48.572;7.838;2022-11-20T13:14:36;14.60;99.90
14192;DHT22;7177;48.572;7.838;2022-11-20T13:19:31;14.90;99.90
14192;DHT22;7177;48.572;7.838;2022-11-20T13:21:57;14.70;99.90
14192;DHT22;7177;48.572;7.838;2022-11-20T13:24:26;15.20;99.90
14192;DHT22;7177;48.572;7.838;2022-11-20T13:27:18;15.50;99.10
14192;DHT22;7177;48.572;7.838;2022-11-20T13:29:59;15.20;99.40
14192;DHT22;7177;48.572;7.838;2022-11-20T13:32:26;14.60;99.40
14192;DHT22;7177;48.572;7.838;2022-11-20T13:35:01;14.00;99.90
14192;DHT22;7177;48.572;7.838;2022-11-20T13:37:31;13.50;99.90
14192;DHT22;7177;48.572;7.838;2022-11-20T13:43:04;12.70;99.90
14192;DHT22;7177;48.572;7.838;2022-11-20T13:45:31;12.40;99.90
14192;DHT22;7177;48.572;7.838;2022-11-20T13:48:01;12.90;99.90
14192;DHT22;7177;48.572;7.838;2022-11-20T13:51:02;13.60;99.90
14192;DHT22;7177;48.572;7.838;2022-11-20T13:57:17;13.80;99.90
14192;DHT22;7177;48.572;7.838;2022-11-20T13:59:43;13.20;99.90
14192;DHT22;7177;48.572;7.838;2022-11-20T14:02:14;12.60;99.90
14192;DHT22;7177;48.572;7.838;2022-11-20T14:04:45;12.20;99.90
14192;DHT22;7177;48.572;7.838;2022-11-20T14:07:11;11.90;99.90
14192;DHT22;7177;48.572;7.838;2022-11-20T14:09:37;11.70;99.90
14192;DHT22;7177;48.572;7.838;2022-11-20T14:12:12;11.40;99.90
14192;DHT22;7177;48.572;7.838;2022-11-20T14:14:49;11.20;99.90
14192;DHT22;7177;48.572;7.838;2022-11-20T14:19:47;11.10;99.90
14192;DHT22;7177;48.572;7.838;2022-11-20T14:22:27;11.10;99.90
14192;DHT22;7177;48.572;7.838;2022-11-20T14:25:04;11.00;99.90
14192;DHT22;7177;48.572;7.838;2022-11-20T14:27:33;10.90;99.90
14192;DHT22;7177;48.572;7.838;2022-11-20T14:30:00;10.80;99.90
14192;DHT22;7177;48.572;7.838;2022-11-20T14:32:28;10.70;99.90
14192;DHT22;7177;48.572;7.838;2022-11-20T14:34:57;10.70;99.90
14192;DHT22;7177;48.572;7.838;2022-11-20T14:37:26;10.70;99.90
14192;DHT22;7177;48.572;7.838;2022-11-20T14:39:55;10.60;99.90
14192;DHT22;7177;48.572;7.838;2022-11-20T14:42:23;10.50;99.90
14192;DHT22;7177;48.572;7.838;2022-11-20T14:44:50;10.40;99.90
14192;DHT22;7177;48.572;7.838;2022-11-20T14:47:23;10.30;99.90
14192;DHT22;7177;48.572;7.838;2022-11-20T14:49:50;10.20;99.90
14192;DHT22;7177;48.572;7.838;2022-11-20T14:52:22;10.20;99.90
14192;DHT22;7177;48.572;7.838;2022-11-20T14:54:52;10.20;99.90
14192;DHT22;7177;48.572;7.838;2022-11-20T14:57:27;10.20;99.90
14192;DHT22;7177;48.572;7.838;2022-11-20T15:00:18;10.20;99.90
14192;DHT22;7177;48.572;7.838;2022-11-20T15:02:46;10.10;99.90
14192;DHT22;7177;48.572;7.838;2022-11-20T15:05:13;10.10;99.90
14192;DHT22;7177;48.572;7.838;2022-11-20T15:07:41;10.00;99.90
14192;DHT22;7177;48.572;7.838;2022-11-20T15:10:25;10.00;99.90
14192;DHT22;7177;48.572;7.838;2022-11-20T15:15:32;9.80;99.90
14192;DHT22;7177;48.572;7.838;2022-11-20T15:18:00;9.80;99.90
14192;DHT22;7177;48.572;7.838;2022-11-20T15:20:29;9.80;99.90
14192;DHT22;7177;48.572;7.838;2022-11-20T15:22:55;9.70;99.90
14192;DHT22;7177;48.572;7.838;2022-11-20T15:25:21;9.70;99.90
14192;DHT22;7177;48.572;7.838;2022-11-20T15:27:51;9.60;99.90
14192;DHT22;7177;48.572;7.838;2022-11-20T15:30:20;9.60;99.90
14192;DHT22;7177;48.572;7.838;2022-11-20T15:32:46;9.60;99.90
14192;DHT22;7177;48.572;7.838;2022-11-20T15:35:13;9.50;99.90
14192;DHT22;7177;48.572;7.838;2022-11-20T15:37:39;9.50;99.90
14192;DHT22;7177;48.572;7.838;2022-11-20T15:40:06;9.50;99.90
14192;DHT22;7177;48.572;7.838;2022-11-20T15:42:33;9.40;99.90
14192;DHT22;7177;48.572;7.838;2022-11-20T15:44:58;9.40;99.90
14192;DHT22;7177;48.572;7.838;2022-11-20T15:47:32;9.40;99.90
14192;DHT22;7177;48.572;7.838;2022-11-20T15:49:59;9.40;99.90
14192;DHT22;7177;48.572;7.838;2022-11-20T15:52:25;9.40;99.90
14192;DHT22;7177;48.572;7.838;2022-11-20T15:54:50;9.30;99.90
14192;DHT22;7177;48.572;7.838;2022-11-20T15:57:16;9.20;99.90
14192;DHT22;7177;48.572;7.838;2022-11-20T15:59:41;9.20;99.90
14192;DHT22;7177;48.572;7.838;2022-11-20T16:02:11;9.10;99.90
14192;DHT22;7177;48.572;7.838;2022-11-20T16:04:37;9.00;99.90
14192;DHT22;7177;48.572;7.838;2022-11-20T16:07:02;9.00;99.90
14192;DHT22;7177;48.572;7.838;2022-11-20T16:09:28;8.90;99.90
14192;DHT22;7177;48.572;7.838;2022-11-20T16:11:53;8.90;99.90
14192;DHT22;7177;48.572;7.838;2022-11-20T16:14:19;8.90;99.90
14192;DHT22;7177;48.572;7.838;2022-11-20T16:17:03;8.90;99.90
14192;DHT22;7177;48.572;7.838;2022-11-20T16:19:29;8.80;99.90
14192;DHT22;7177;48.572;7.838;2022-11-20T16:21:54;8.80;99.90
14192;DHT22;7177;48.572;7.838;2022-11-20T16:24:20;8.70;99.90
14192;DHT22;7177;48.572;7.838;2022-11-20T16:26:45;8.70;99.90
14192;DHT22;7177;48.572;7.838;2022-11-20T16:29:11;8.70;99.90
14192;DHT22;7177;48.572;7.838;2022-11-20T16:31:37;8.60;99.90
14192;DHT22;7177;48.572;7.838;2022-11-20T16:34:05;8.60;99.90
14192;DHT22;7177;48.572;7.838;2022-11-20T16:36:31;8.60;99.90
14192;DHT22;7177;48.572;7.838;2022-11-20T16:38:59;8.60;99.90
14192;DHT22;7177;48.572;7.838;2022-11-20T16:41:26;8.60;99.90
14192;DHT22;7177;48.572;7.838;2022-11-20T16:43:54;8.60;99.90
14192;DHT22;7177;48.572;7.838;2022-11-20T16:46:23;8.60;99.90
14192;DHT22;7177;48.572;7.838;2022-11-20T16:49:00;8.70;99.90
14192;DHT22;7177;48.572;7.838;2022-11-20T16:51:27;8.60;99.90
14192;DHT22;7177;48.572;7.838;2022-11-20T16:53:54;8.60;99.90
14192;DHT22;7177;48.572;7.838;2022-11-20T16:56:22;8.60;99.90
14192;DHT22;7177;48.572;7.838;2022-11-20T16:58:49;8.60;99.90
14192;DHT22;7177;48.572;7.838;2022-11-20T17:01:17;8.60;99.90
14192;DHT22;7177;48.572;7.838;2022-11-20T17:03:45;8.60;99.90
14192;DHT22;7177;48.572;7.838;2022-11-20T17:06:21;8.60;99.90
14192;DHT22;7177;48.572;7.838;2022-11-20T17:08:47;8.60;99.90
14192;DHT22;7177;48.572;7.838;2022-11-20T17:11:16;8.60;99.90
14192;DHT22;7177;48.572;7.838;2022-11-20T17:13:43;8.60;99.90
14192;DHT22;7177;48.572;7.838;2022-11-20T17:16:13;8.60;99.90
14192;DHT22;7177;48.572;7.838;2022-11-20T17:18:39;8.70;99.90
14192;DHT22;7177;48.572;7.838;2022-11-20T17:21:07;8.60;99.90
14192;DHT22;7177;48.572;7.838;2022-11-20T17:23:34;8.60;99.90
14192;DHT22;7177;48.572;7.838;2022-11-20T17:28:27;8.50;99.90